sensor_id;sensor_type;location;lat;lon;timestamp;temperature;humidity
21108;DHT22;10712;52.944;9.098;2023-04-01T00:01:01;10.30;94.30
21108;DHT22;10712;52.944;9.098;2023-04-01T00:03:28;10.30;94.30
21108;DHT22;10712;52.944;9.098;2023-04-01T00:05:55;10.30;94.30
21108;DHT22;10712;52.944;9.098;2023-04-01T00:08:22;10.30;94.30
21108;DHT22;10712;52.944;9.098;2023-04-01T00:10:49;10.20;94.30
21108;DHT22;10712;52.944;9.098;2023-04-01T00:13:15;10.30;94.30
21108;DHT22;10712;52.944;9.098;2023-04-01T00:15:42;10.30;94.30
21108;DHT22;10712;52.944;9.098;2023-04-01T00:18:09;10.30;94.30
21108;DHT22;10712;52.944;9.098;2023-04-01T00:20:36;10.30;94.30
21108;DHT22;10712;52.944;9.098;2023-04-01T00:23:02;10.20;94.30
21108;DHT22;10712;52.944;9.098;2023-04-01T00:25:28;10.20;94.30
21108;DHT22;10712;52.944;9.098;2023-04-01T00:27:54;10.20;94.30
21108;DHT22;10712;52.944;9.098;2023-04-01T00:30:20;10.20;94.30
21108;DHT22;10712;52.944;9.098;2023-04-01T00:32:46;10.20;94.30
21108;DHT22;10712;52.944;9.098;2023-04-01T00:35:12;10.20;94.30
21108;DHT22;10712;52.944;9.098;2023-04-01T00:37:38;10.20;94.30
21108;DHT22;10712;52.944;9.098;2023-04-01T00:40:08;10.20;94.30
21108;DHT22;10712;52.944;9.098;2023-04-01T00:43:18;10.20;94.30
21108;DHT22;10712;52.944;9.098;2023-04-01T00:45:47;10.20;94.30
21108;DHT22;10712;52.944;9.098;2023-04-01T00:48:19;10.20;94.30
21108;DHT22;10712;52.944;9.098;2023-04-01T00:53:42;10.20;94.30
21108;DHT22;10712;52.944;9.098;2023-04-01T00:56:37;10.20;94.30
21108;DHT22;10712;52.944;9.098;2023-04-01T00:59:14;10.20;94.30
21108;DHT22;10712;52.944;9.098;2023-04-01T01:01:44;10.20;94.30
21108;DHT22;10712;52.944;9.098;2023-04-01T01:04:31;10.20;94.30
21108;DHT22;10712;52.944;9.098;2023-04-01T01:10:17;10.20;94.30
21108;DHT22;10712;52.944;9.098;2023-04-01T01:15:41;10.20;94.30
21108;DHT22;10712;52.944;9.098;2023-04-01T01:18:28;10.20;94.30
21108;DHT22;10712;52.944;9.098;2023-04-01T01:21:16;10.20;94.30
21108;DHT22;10712;52.944;9.098;2023-04-01T01:29:30;10.20;94.30
21108;DHT22;10712;52.944;9.098;2023-04-01T01:35:26;10.20;94.30
21108;DHT22;10712;52.944;9.098;2023-04-01T01:38:01;10.20;94.30
21108;DHT22;10712;52.944;9.098;2023-04-01T01:40:32;10.20;94.30
21108;DHT22;10712;52.944;9.098;2023-04-01T01:43:05;10.20;94.30
21108;DHT22;10712;52.944;9.098;2023-04-01T01:45:36;10.20;94.30
21108;DHT22;10712;52.944;9.098;2023-04-01T01:48:07;10.20;94.30
21108;DHT22;10712;52.944;9.098;2023-04-01T01:50:35;10.20;94.30
21108;DHT22;10712;52.944;9.098;2023-04-01T01:53:07;10.20;94.30
21108;DHT22;10712;52.944;9.098;2023-04-01T01:55:38;10.20;94.30
21108;DHT22;10712;52.944;9.098;2023-04-01T02:01:03;10.20;94.30
21108;DHT22;10712;52.944;9.098;2023-04-01T02:03:34;10.20;94.30
21108;DHT22;10712;52.944;9.098;2023-04-01T02:06:05;10.20;94.30
21108;DHT22;10712;52.944;9.098;2023-04-01T02:11:56;10.20;94.30
21108;DHT22;10712;52.944;9.098;2023-04-01T02:14:39;10.10;94.30
21108;DHT22;10712;52.944;9.098;2023-04-01T02:17:23;10.10;94.30
21108;DHT22;10712;52.944;9.098;2023-04-01T02:19:57;10.10;94.30
21108;DHT22;10712;52.944;9.098;2023-04-01T02:22:29;10.10;94.30
21108;DHT22;10712;52.944;9.098;2023-04-01T02:25:08;10.10;94.30
21108;DHT22;10712;52.944;9.098;2023-04-01T02:27:38;10.10;94.30
21108;DHT22;10712;52.944;9.098;2023-04-01T02:30:05;10.10;94.30
21108;DHT22;10712;52.944;9.098;2023-04-01T02:32:33;10.10;94.30
21108;DHT22;10712;52.944;9.098;2023-04-01T02:35:04;10.10;94.30
21108;DHT22;10712;52.944;9.098;2023-04-01T02:37:32;10.10;94.30
21108;DHT22;10712;52.944;9.098;2023-04-01T02:40:06;10.10;94.30
21108;DHT22;10712;52.944;9.098;2023-04-01T02:42:33;10.10;94.30
21108;DHT22;10712;52.944;9.098;2023-04-01T02:45:00;10.10;94.30
21108;DHT22;10712;52.944;9.098;2023-04-01T02:47:25;10.10;94.30
21108;DHT22;10712;52.944;9.098;2023-04-01T02:49:51;10.00;94.30
21108;DHT22;10712;52.944;9.098;2023-04-01T02:52:32;10.10;94.30
21108;DHT22;10712;52.944;9.098;2023-04-01T02:55:00;10.00;94.30
21108;DHT22;10712;52.944;9.098;2023-04-01T02:57:27;10.00;94.30
21108;DHT22;10712;52.944;9.098;2023-04-01T02:59:53;10.00;94.30
21108;DHT22;10712;52.944;9.098;2023-04-01T03:02:19;10.00;94.30
21108;DHT22;10712;52.944;9.098;2023-04-01T03:04:45;10.00;94.30
21108;DHT22;10712;52.944;9.098;2023-04-01T03:07:11;10.00;94.30
21108;DHT22;10712;52.944;9.098;2023-04-01T03:09:37;10.00;94.30
21108;DHT22;10712;52.944;9.098;2023-04-01T03:12:04;10.00;94.30
21108;DHT22;10712;52.944;9.098;2023-04-01T03:14:36;10.00;94.30
21108;DHT22;10712;52.944;9.098;2023-04-01T03:17:02;10.00;94.30
21108;DHT22;10712;52.944;9.098;2023-04-01T03:19:28;10.00;94.30
21108;DHT22;10712;52.944;9.098;2023-04-01T03:21:54;10.00;94.30
21108;DHT22;10712;52.944;9.098;2023-04-01T03:24:20;10.00;94.30
21108;DHT22;10712;52.944;9.098;2023-04-01T03:26:46;10.00;94.30
21108;DHT22;10712;52.944;9.098;2023-04-01T03:29:12;10.00;94.30
21108;DHT22;10712;52.944;9.098;2023-04-01T03:31:41;10.00;94.30
21108;DHT22;10712;52.944;9.098;2023-04-01T03:34:07;9.90;94.30
21108;DHT22;10712;52.944;9.098;2023-04-01T03:36:33;10.00;94.30
21108;DHT22;10712;52.944;9.098;2023-04-01T03:38:58;9.90;94.30
21108;DHT22;10712;52.944;9.098;2023-04-01T03:41:36;9.90;94.30
21108;DHT22;10712;52.944;9.098;2023-04-01T03:44:03;9.90;94.30
21108;DHT22;10712;52.944;9.098;2023-04-01T03:46:28;9.90;94.30
21108;DHT22;10712;52.944;9.098;2023-04-01T03:48:54;9.90;94.30
21108;DHT22;10712;52.944;9.098;2023-04-01T03:51:20;9.90;94.30
21108;DHT22;10712;52.944;9.098;2023-04-01T03:53:48;9.90;94.30
21108;DHT22;10712;52.944;9.098;2023-04-01T03:56:14;9.90;94.30
21108;DHT22;10712;52.944;9.098;2023-04-01T03:58:40;9.90;94.30
21108;DHT22;10712;52.944;9.098;2023-04-01T04:01:18;9.90;94.30
21108;DHT22;10712;52.944;9.098;2023-04-01T04:03:52;9.90;94.30
21108;DHT22;10712;52.944;9.098;2023-04-01T04:06:18;9.90;94.30
21108;DHT22;10712;52.944;9.098;2023-04-01T04:08:45;9.90;94.30
21108;DHT22;10712;52.944;9.098;2023-04-01T04:11:11;9.90;94.30
21108;DHT22;10712;52.944;9.098;2023-04-01T04:13:41;9.90;94.30
21108;DHT22;10712;52.944;9.098;2023-04-01T04:16:07;9.90;94.30
21108;DHT22;10712;52.944;9.098;2023-04-01T04:18:37;9.90;94.30
21108;DHT22;10712;52.944;9.098;2023-04-01T04:21:03;9.90;94.30
21108;DHT22;10712;52.944;9.098;2023-04-01T04:23:30;9.90;94.30
21108;DHT22;10712;52.944;9.098;2023-04-01T04:26:04;9.80;94.30
21108;DHT22;10712;52.944;9.098;2023-04-01T04:28:32;9.80;94.30
21108;DHT22;10712;52.944;9.098;2023-04-01T04:30:58;9.80;94.30
21108;DHT22;10712;52.944;9.098;2023-04-01T04:33:25;9.80;94.30
21108;DHT22;10712;52.944;9.098;2023-04-01T04:35:55;9.90;94.30
21108;DHT22;10712;52.944;9.098;2023-04-01T04:38:23;9.90;94.30
21108;DHT22;10712;52.944;9.098;2023-04-01T04:40:49;9.90;94.30
21108;DHT22;10712;52.944;9.098;2023-04-01T04:43:17;9.80;94.30
21108;DHT22;10712;52.944;9.098;2023-04-01T04:45:44;9.80;94.30
21108;DHT22;10712;52.944;9.098;2023-04-01T04:48:13;9.80;94.30
21108;DHT22;10712;52.944;9.098;2023-04-01T04:50:48;9.80;94.30
21108;DHT22;10712;52.944;9.098;2023-04-01T04:53:17;9.80;94.30
21108;DHT22;10712;52.944;9.098;2023-04-01T04:55:48;9.80;94.30
21108;DHT22;10712;52.944;9.098;2023-04-01T04:58:24;9.80;94.30
21108;DHT22;10712;52.944;9.098;2023-04-01T05:00:50;9.80;94.30
21108;DHT22;10712;52.944;9.098;2023-04-01T05:03:21;9.80;94.30
21108;DHT22;10712;52.944;9.098;2023-04-01T05:05:51;9.80;94.30
21108;DHT22;10712;52.944;9.098;2023-04-01T05:08:18;9.80;94.30
21108;DHT22;10712;52.944;9.098;2023-04-01T05:10:44;9.80;94.30
21108;DHT22;10712;52.944;9.098;2023-04-01T05:13:11;9.80;94.30
21108;DHT22;10712;52.944;9.098;2023-04-01T05:15:37;9.80;94.30
21108;DHT22;10712;52.944;9.098;2023-04-01T05:18:04;9.80;94.30
21108;DHT22;10712;52.944;9.098;2023-04-01T05:20:29;9.80;94.30
21108;DHT22;10712;52.944;9.098;2023-04-01T05:22:56;9.80;94.30
21108;DHT22;10712;52.944;9.098;2023-04-01T05:25:23;9.80;94.30
21108;DHT22;10712;52.944;9.098;2023-04-01T05:27:50;9.80;94.30
21108;DHT22;10712;52.944;9.098;2023-04-01T05:30:16;9.80;94.30
21108;DHT22;10712;52.944;9.098;2023-04-01T05:32:57;9.80;94.30
21108;DHT22;10712;52.944;9.098;2023-04-01T05:35:24;9.80;94.30
21108;DHT22;10712;52.944;9.098;2023-04-01T05:37:50;9.80;94.30
21108;DHT22;10712;52.944;9.098;2023-04-01T05:40:16;9.80;94.30
21108;DHT22;10712;52.944;9.098;2023-04-01T05:42:42;9.80;94.30
21108;DHT22;10712;52.944;9.098;2023-04-01T05:45:09;9.80;94.30
21108;DHT22;10712;52.944;9.098;2023-04-01T05:47:53;9.80;94.30
21108;DHT22;10712;52.944;9.098;2023-04-01T05:50:20;9.80;94.30
21108;DHT22;10712;52.944;9.098;2023-04-01T05:52:46;9.80;94.30
21108;DHT22;10712;52.944;9.098;2023-04-01T05:55:11;9.80;94.30
21108;DHT22;10712;52.944;9.098;2023-04-01T05:57:37;9.80;94.30
21108;DHT22;10712;52.944;9.098;2023-04-01T06:00:05;9.80;94.30
21108;DHT22;10712;52.944;9.098;2023-04-01T06:02:38;9.80;94.30
21108;DHT22;10712;52.944;9.098;2023-04-01T06:05:18;9.80;94.30
21108;DHT22;10712;52.944;9.098;2023-04-01T06:07:46;9.80;94.30
21108;DHT22;10712;52.944;9.098;2023-04-01T06:10:18;9.80;94.30
21108;DHT22;10712;52.944;9.098;2023-04-01T06:13:12;9.80;94.30
21108;DHT22;10712;52.944;9.098;2023-04-01T06:18:50;9.80;94.30
21108;DHT22;10712;52.944;9.098;2023-04-01T06:24:26;9.80;94.30
21108;DHT22;10712;52.944;9.098;2023-04-01T06:33:30;9.80;94.30
21108;DHT22;10712;52.944;9.098;2023-04-01T06:42:31;9.90;94.30
21108;DHT22;10712;52.944;9.098;2023-04-01T06:58:27;10.00;94.30
21108;DHT22;10712;52.944;9.098;2023-04-01T07:01:01;10.00;94.30
21108;DHT22;10712;52.944;9.098;2023-04-01T07:06:36;10.00;94.30
21108;DHT22;10712;52.944;9.098;2023-04-01T07:09:10;10.00;94.30
21108;DHT22;10712;52.944;9.098;2023-04-01T07:12:05;10.00;94.30
21108;DHT22;10712;52.944;9.098;2023-04-01T07:14:59;10.00;94.30
21108;DHT22;10712;52.944;9.098;2023-04-01T07:17:37;10.00;94.30
21108;DHT22;10712;52.944;9.098;2023-04-01T07:20:22;10.10;94.30
21108;DHT22;10712;52.944;9.098;2023-04-01T07:22:55;10.10;94.30
21108;DHT22;10712;52.944;9.098;2023-04-01T07:25:44;10.10;94.30
21108;DHT22;10712;52.944;9.098;2023-04-01T07:28:39;10.10;94.30
21108;DHT22;10712;52.944;9.098;2023-04-01T07:34:23;10.20;94.30
21108;DHT22;10712;52.944;9.098;2023-04-01T07:48:38;10.20;94.30
21108;DHT22;10712;52.944;9.098;2023-04-01T07:54:31;10.30;94.30
21108;DHT22;10712;52.944;9.098;2023-04-01T08:03:31;10.30;94.30
21108;DHT22;10712;52.944;9.098;2023-04-01T08:06:24;10.40;94.30
21108;DHT22;10712;52.944;9.098;2023-04-01T08:15:50;10.50;94.30
21108;DHT22;10712;52.944;9.098;2023-04-01T08:18:47;10.50;94.30
21108;DHT22;10712;52.944;9.098;2023-04-01T08:21:28;10.60;94.30
21108;DHT22;10712;52.944;9.098;2023-04-01T08:27:01;10.60;94.30
21108;DHT22;10712;52.944;9.098;2023-04-01T08:29:44;10.70;94.30
21108;DHT22;10712;52.944;9.098;2023-04-01T08:32:24;10.70;94.30
21108;DHT22;10712;52.944;9.098;2023-04-01T08:35:08;10.80;94.30
21108;DHT22;10712;52.944;9.098;2023-04-01T08:37:44;10.80;94.30
21108;DHT22;10712;52.944;9.098;2023-04-01T08:41:21;10.80;94.30
21108;DHT22;10712;52.944;9.098;2023-04-01T08:46:38;10.90;94.30
21108;DHT22;10712;52.944;9.098;2023-04-01T08:49:32;10.90;94.30
21108;DHT22;10712;52.944;9.098;2023-04-01T08:52:33;10.90;94.30
21108;DHT22;10712;52.944;9.098;2023-04-01T09:01:20;11.10;94.30
21108;DHT22;10712;52.944;9.098;2023-04-01T09:04:14;11.10;94.30
21108;DHT22;10712;52.944;9.098;2023-04-01T09:07:08;11.10;94.30
21108;DHT22;10712;52.944;9.098;2023-04-01T09:10:18;11.20;94.30
21108;DHT22;10712;52.944;9.098;2023-04-01T09:16:16;11.20;94.30
21108;DHT22;10712;52.944;9.098;2023-04-01T09:28:17;11.20;94.30
21108;DHT22;10712;52.944;9.098;2023-04-01T09:31:09;11.20;94.30
21108;DHT22;10712;52.944;9.098;2023-04-01T09:34:37;11.20;94.30
21108;DHT22;10712;52.944;9.098;2023-04-01T09:37:32;11.30;94.30
21108;DHT22;10712;52.944;9.098;2023-04-01T09:43:36;11.40;94.30
21108;DHT22;10712;52.944;9.098;2023-04-01T09:52:08;11.60;94.30
21108;DHT22;10712;52.944;9.098;2023-04-01T10:21:56;11.90;92.70
21108;DHT22;10712;52.944;9.098;2023-04-01T10:24:30;11.90;92.60
21108;DHT22;10712;52.944;9.098;2023-04-01T10:34:15;11.90;92.30
21108;DHT22;10712;52.944;9.098;2023-04-01T10:36:57;12.00;92.30
21108;DHT22;10712;52.944;9.098;2023-04-01T10:56:21;11.90;91.80
21108;DHT22;10712;52.944;9.098;2023-04-01T11:05:26;11.20;91.50
21108;DHT22;10712;52.944;9.098;2023-04-01T11:20:34;10.50;93.10
21108;DHT22;10712;52.944;9.098;2023-04-01T11:23:53;10.40;93.70
21108;DHT22;10712;52.944;9.098;2023-04-01T11:27:08;10.30;94.00
21108;DHT22;10712;52.944;9.098;2023-04-01T11:32:59;10.20;94.30
21108;DHT22;10712;52.944;9.098;2023-04-01T11:39:14;10.20;94.30
21108;DHT22;10712;52.944;9.098;2023-04-01T11:42:09;10.20;94.30
21108;DHT22;10712;52.944;9.098;2023-04-01T11:45:32;10.20;94.30
21108;DHT22;10712;52.944;9.098;2023-04-01T12:09:34;9.70;94.30
21108;DHT22;10712;52.944;9.098;2023-04-01T12:17:51;9.60;94.30
21108;DHT22;10712;52.944;9.098;2023-04-01T12:31:42;9.60;94.30
21108;DHT22;10712;52.944;9.098;2023-04-01T12:37:45;9.50;94.30
21108;DHT22;10712;52.944;9.098;2023-04-01T12:43:27;9.40;94.30
21108;DHT22;10712;52.944;9.098;2023-04-01T12:49:31;9.40;94.30
21108;DHT22;10712;52.944;9.098;2023-04-01T12:52:14;9.40;94.30
21108;DHT22;10712;52.944;9.098;2023-04-01T12:55:18;9.30;94.30
21108;DHT22;10712;52.944;9.098;2023-04-01T13:27:35;8.90;93.90
21108;DHT22;10712;52.944;9.098;2023-04-01T13:42:25;8.90;94.30
21108;DHT22;10712;52.944;9.098;2023-04-01T13:45:12;8.90;93.60
21108;DHT22;10712;52.944;9.098;2023-04-01T13:50:56;8.80;93.60
21108;DHT22;10712;52.944;9.098;2023-04-01T14:09:25;8.60;94.10
21108;DHT22;10712;52.944;9.098;2023-04-01T14:12:38;8.50;94.30
21108;DHT22;10712;52.944;9.098;2023-04-01T14:19:00;8.50;94.30
21108;DHT22;10712;52.944;9.098;2023-04-01T14:41:05;8.30;94.30
21108;DHT22;10712;52.944;9.098;2023-04-01T14:46:50;8.20;94.30
21108;DHT22;10712;52.944;9.098;2023-04-01T14:49:41;8.20;94.30
21108;DHT22;10712;52.944;9.098;2023-04-01T14:52:33;8.20;94.30
21108;DHT22;10712;52.944;9.098;2023-04-01T14:55:32;8.10;94.30
21108;DHT22;10712;52.944;9.098;2023-04-01T15:00:52;8.10;94.30
21108;DHT22;10712;52.944;9.098;2023-04-01T15:12:11;8.00;94.30
21108;DHT22;10712;52.944;9.098;2023-04-01T15:18:36;7.90;94.30
21108;DHT22;10712;52.944;9.098;2023-04-01T15:21:18;7.80;94.30
21108;DHT22;10712;52.944;9.098;2023-04-01T15:24:25;7.80;94.20
21108;DHT22;10712;52.944;9.098;2023-04-01T15:30:19;7.80;94.30
21108;DHT22;10712;52.944;9.098;2023-04-01T15:36:32;7.80;94.30
21108;DHT22;10712;52.944;9.098;2023-04-01T15:44:42;7.60;94.30
21108;DHT22;10712;52.944;9.098;2023-04-01T15:47:37;7.60;94.30
21108;DHT22;10712;52.944;9.098;2023-04-01T15:53:23;7.50;94.30
21108;DHT22;10712;52.944;9.098;2023-04-01T16:03:03;7.40;94.20
21108;DHT22;10712;52.944;9.098;2023-04-01T16:17:16;7.10;94.00
21108;DHT22;10712;52.944;9.098;2023-04-01T16:23:46;7.00;94.20
21108;DHT22;10712;52.944;9.098;2023-04-01T16:26:29;7.00;93.70
21108;DHT22;10712;52.944;9.098;2023-04-01T16:31:51;6.90;94.10
21108;DHT22;10712;52.944;9.098;2023-04-01T16:34:47;6.90;94.30
21108;DHT22;10712;52.944;9.098;2023-04-01T16:37:28;6.80;94.00
21108;DHT22;10712;52.944;9.098;2023-04-01T16:42:53;6.80;94.10
21108;DHT22;10712;52.944;9.098;2023-04-01T16:46:18;6.80;94.20
21108;DHT22;10712;52.944;9.098;2023-04-01T16:49:23;6.80;94.00
21108;DHT22;10712;52.944;9.098;2023-04-01T16:54:29;6.80;94.30
21108;DHT22;10712;52.944;9.098;2023-04-01T17:02:57;6.80;94.30
21108;DHT22;10712;52.944;9.098;2023-04-01T17:05:42;6.70;94.10
21108;DHT22;10712;52.944;9.098;2023-04-01T17:08:27;6.70;94.00
21108;DHT22;10712;52.944;9.098;2023-04-01T17:11:24;6.60;94.10
21108;DHT22;10712;52.944;9.098;2023-04-01T17:23:04;6.50;93.80
21108;DHT22;10712;52.944;9.098;2023-04-01T17:34:31;6.40;94.20
21108;DHT22;10712;52.944;9.098;2023-04-01T17:43:08;6.30;94.30
21108;DHT22;10712;52.944;9.098;2023-04-01T17:46:07;6.30;94.00
21108;DHT22;10712;52.944;9.098;2023-04-01T17:58:28;6.20;94.30
21108;DHT22;10712;52.944;9.098;2023-04-01T18:01:15;6.20;94.30
21108;DHT22;10712;52.944;9.098;2023-04-01T18:07:03;6.10;94.30
21108;DHT22;10712;52.944;9.098;2023-04-01T18:09:53;6.10;94.30
21108;DHT22;10712;52.944;9.098;2023-04-01T18:15:27;6.00;94.30
21108;DHT22;10712;52.944;9.098;2023-04-01T18:24:40;5.90;94.00
21108;DHT22;10712;52.944;9.098;2023-04-01T18:29:37;5.80;93.70
21108;DHT22;10712;52.944;9.098;2023-04-01T18:32:34;5.80;93.90
21108;DHT22;10712;52.944;9.098;2023-04-01T18:38:13;5.80;94.30
21108;DHT22;10712;52.944;9.098;2023-04-01T18:41:07;5.80;94.30
21108;DHT22;10712;52.944;9.098;2023-04-01T18:46:59;5.70;93.80
21108;DHT22;10712;52.944;9.098;2023-04-01T18:49:56;5.70;93.90
21108;DHT22;10712;52.944;9.098;2023-04-01T18:57:52;5.70;93.60
21108;DHT22;10712;52.944;9.098;2023-04-01T19:00:32;5.60;93.80
21108;DHT22;10712;52.944;9.098;2023-04-01T19:03:25;5.60;94.10
21108;DHT22;10712;52.944;9.098;2023-04-01T19:06:01;5.60;93.70
21108;DHT22;10712;52.944;9.098;2023-04-01T19:08:41;5.50;93.60
21108;DHT22;10712;52.944;9.098;2023-04-01T19:11:31;5.50;93.80
21108;DHT22;10712;52.944;9.098;2023-04-01T19:17:47;5.40;94.10
21108;DHT22;10712;52.944;9.098;2023-04-01T19:20:27;5.40;94.10
21108;DHT22;10712;52.944;9.098;2023-04-01T19:26:00;5.40;94.30
21108;DHT22;10712;52.944;9.098;2023-04-01T19:28:54;5.30;94.30
21108;DHT22;10712;52.944;9.098;2023-04-01T19:36:56;5.30;93.90
21108;DHT22;10712;52.944;9.098;2023-04-01T19:39:48;5.20;93.90
21108;DHT22;10712;52.944;9.098;2023-04-01T19:42:42;5.20;93.60
21108;DHT22;10712;52.944;9.098;2023-04-01T19:48:32;5.10;93.10
21108;DHT22;10712;52.944;9.098;2023-04-01T19:51:34;5.10;93.30
21108;DHT22;10712;52.944;9.098;2023-04-01T19:54:20;5.10;93.10
21108;DHT22;10712;52.944;9.098;2023-04-01T20:02:56;5.00;92.60
21108;DHT22;10712;52.944;9.098;2023-04-01T20:05:44;5.00;92.80
21108;DHT22;10712;52.944;9.098;2023-04-01T20:08:39;5.00;92.70
21108;DHT22;10712;52.944;9.098;2023-04-01T20:14:08;5.00;92.40
21108;DHT22;10712;52.944;9.098;2023-04-01T20:20:18;4.90;92.30
21108;DHT22;10712;52.944;9.098;2023-04-01T20:25:48;4.90;92.70
21108;DHT22;10712;52.944;9.098;2023-04-01T20:28:37;4.90;92.60
21108;DHT22;10712;52.944;9.098;2023-04-01T20:31:24;4.90;92.50
21108;DHT22;10712;52.944;9.098;2023-04-01T20:49:41;4.80;92.80
21108;DHT22;10712;52.944;9.098;2023-04-01T20:52:49;4.70;92.70
21108;DHT22;10712;52.944;9.098;2023-04-01T21:06:46;4.60;92.60
21108;DHT22;10712;52.944;9.098;2023-04-01T21:09:41;4.60;92.30
21108;DHT22;10712;52.944;9.098;2023-04-01T21:20:42;4.50;92.40
21108;DHT22;10712;52.944;9.098;2023-04-01T21:30:07;4.40;91.60
21108;DHT22;10712;52.944;9.098;2023-04-01T21:45:19;4.30;91.50
21108;DHT22;10712;52.944;9.098;2023-04-01T21:54:30;4.20;91.40
21108;DHT22;10712;52.944;9.098;2023-04-01T22:00:14;4.20;91.40
21108;DHT22;10712;52.944;9.098;2023-04-01T22:02:55;4.10;91.00
21108;DHT22;10712;52.944;9.098;2023-04-01T22:05:35;4.10;90.70
21108;DHT22;10712;52.944;9.098;2023-04-01T22:08:56;4.10;90.80
21108;DHT22;10712;52.944;9.098;2023-04-01T22:11:35;4.10;90.70
21108;DHT22;10712;52.944;9.098;2023-04-01T22:14:27;4.10;90.70
21108;DHT22;10712;52.944;9.098;2023-04-01T22:17:30;4.00;90.10
21108;DHT22;10712;52.944;9.098;2023-04-01T22:20:25;4.00;89.50
21108;DHT22;10712;52.944;9.098;2023-04-01T22:23:07;4.00;89.60
21108;DHT22;10712;52.944;9.098;2023-04-01T22:29:07;4.00;89.60
21108;DHT22;10712;52.944;9.098;2023-04-01T22:31:55;4.00;88.80
21108;DHT22;10712;52.944;9.098;2023-04-01T22:40:42;3.80;87.60
21108;DHT22;10712;52.944;9.098;2023-04-01T22:43:41;3.80;87.40
21108;DHT22;10712;52.944;9.098;2023-04-01T22:52:11;3.60;84.50
21108;DHT22;10712;52.944;9.098;2023-04-01T22:54:46;3.50;85.10
21108;DHT22;10712;52.944;9.098;2023-04-01T23:00:27;3.30;85.60
21108;DHT22;10712;52.944;9.098;2023-04-01T23:03:18;3.20;86.00
21108;DHT22;10712;52.944;9.098;2023-04-01T23:05:53;3.20;86.10
21108;DHT22;10712;52.944;9.098;2023-04-01T23:11:22;3.20;87.00
21108;DHT22;10712;52.944;9.098;2023-04-01T23:20:24;3.10;87.20
21108;DHT22;10712;52.944;9.098;2023-04-01T23:23:40;3.10;87.10
21108;DHT22;10712;52.944;9.098;2023-04-01T23:26:20;3.10;87.20
21108;DHT22;10712;52.944;9.098;2023-04-01T23:28:51;3.00;87.00
21108;DHT22;10712;52.944;9.098;2023-04-01T23:34:02;2.90;85.70
21108;DHT22;10712;52.944;9.098;2023-04-01T23:36:30;2.90;85.50
21108;DHT22;10712;52.944;9.098;2023-04-01T23:39:06;2.80;85.30
21108;DHT22;10712;52.944;9.098;2023-04-01T23:41:47;2.80;85.40
21108;DHT22;10712;52.944;9.098;2023-04-01T23:44:14;2.80;85.10
21108;DHT22;10712;52.944;9.098;2023-04-01T23:46:44;2.70;84.90
21108;DHT22;10712;52.944;9.098;2023-04-01T23:49:17;2.70;84.60
21108;DHT22;10712;52.944;9.098;2023-04-01T23:51:53;2.60;84.50
21108;DHT22;10712;52.944;9.098;2023-04-01T23:54:32;2.60;84.40
21108;DHT22;10712;52.944;9.098;2023-04-01T23:57:04;2.60;84.50
21108;DHT22;10712;52.944;9.098;2023-04-01T23:59:36;2.50;84.50
